Perry, Maine
Current Conditions -  °F | °C
As of 12:00 PM on Sunday 23 Nov 2014 (Local Time) from CYSJ Reporting Station
Few Clouds Few Clouds  
Wind Chill: 40°   Ceiling: Unl
Heat Index: 45°   Visibility: 15mi
Dew Point: 28°   Wind: 9mph
Humidity: 53%   Direction: 270°W
Pressure: 30.04"   Gusts: NA
Location:  44.98°N, 67.08°W
Report Text: CYSJ 231700Z 27008KT 230V290 15SM FEW015 FEW260 07/M02 A3004 RMK SC1CI1 SLP177
Loading
Personal Weather Stations






























Interactive Weather Map New forecast layout! Learn more

10-Day Weather Forecast

Advertisements
Track Severe Weather on mobile